Time;durP1;ratioP1;P1;durP2;ratioP2;P2;SDS_P1;SDS_P2;PMS_P1;PMS_P2;Temp;Humidity;BMP_temperature;BMP_pressure;BME280_temperature;BME280_humidity;BME280_pressure;Samples;Min_cycle;Max_cycle;Signal;HPM_P1;HPM_P2
2022/11/09 00:01:29;;;;;;;8.77;3.73;;;;;;;;;;5033519;28;20289;-95
2022/11/09 00:03:59;;;;;;;3.43;2.20;;;;;;;;;;5039772;28;20242;-95
2022/11/09 00:06:31;;;;;;;10.10;3.03;;;;;;;;;;5045552;28;20248;-94
2022/11/09 00:09:01;;;;;;;13.47;3.70;;;;;;;;;;5036888;28;20241;-94
2022/11/09 00:11:35;;;;;;;3.30;1.57;;;;;;;;;;5041030;28;20201;-94
2022/11/09 00:14:17;;;;;;;9.20;3.07;;;;;;;;;;5056061;28;20209;-95
2022/11/09 00:16:55;;;;;;;9.57;3.53;;;;;;;;;;5026081;28;20212;-94
2022/11/09 00:20:13;;;;;;;4.50;2.33;;;;;;;;;;4963181;28;20189;-93
2022/11/09 00:22:43;;;;;;;6.93;2.53;;;;;;;;;;5032038;28;20230;-95
2022/11/09 00:25:12;;;;;;;6.33;2.67;;;;;;;;;;5036746;28;20206;-95
2022/11/09 00:27:40;;;;;;;7.80;2.80;;;;;;;;;;5036349;28;20203;-94
2022/11/09 00:30:10;;;;;;;9.93;3.37;;;;;;;;;;5054008;28;20206;-93
2022/11/09 00:32:39;;;;;;;6.13;2.80;;;;;;;;;;5024599;28;20303;-93
2022/11/09 00:35:07;;;;;;;8.27;2.77;;;;;;;;;;5043660;28;20202;-95
2022/11/09 00:37:36;;;;;;;10.17;3.27;;;;;;;;;;5036795;28;20225;-91
2022/11/09 00:40:07;;;;;;;9.20;2.57;;;;;;;;;;5053391;28;20198;-92
2022/11/09 00:42:46;;;;;;;5.07;2.50;;;;;;;;;;5025117;28;20198;-91
2022/11/09 00:45:20;;;;;;;7.60;3.27;;;;;;;;;;5040164;28;20289;-91
2022/11/09 00:47:48;;;;;;;6.87;2.90;;;;;;;;;;5028239;28;20198;-93
2022/11/09 00:50:17;;;;;;;4.53;2.73;;;;;;;;;;5034180;28;20201;-91
2022/11/09 00:52:47;;;;;;;7.93;3.40;;;;;;;;;;5036651;28;20218;-93
2022/11/09 00:55:19;;;;;;;5.57;2.60;;;;;;;;;;5035908;28;20204;-93
2022/11/09 00:57:50;;;;;;;7.63;3.97;;;;;;;;;;5035272;28;20213;-92
2022/11/09 01:00:18;;;;;;;6.00;2.87;;;;;;;;;;5035782;28;20230;-91
2022/11/09 01:02:47;;;;;;;7.10;2.60;;;;;;;;;;5035932;28;20205;-92
2022/11/09 01:05:32;;;;;;;3.77;2.60;;;;;;;;;;5036443;28;20233;-92
2022/11/09 01:08:00;;;;;;;8.27;3.17;;;;;;;;;;5040770;28;20336;-93
2022/11/09 01:10:30;;;;;;;6.47;4.00;;;;;;;;;;5035597;28;20221;-90
2022/11/09 01:12:59;;;;;;;6.20;2.87;;;;;;;;;;4959359;28;20225;-93
2022/11/09 01:15:27;;;;;;;8.60;3.37;;;;;;;;;;5035378;28;20287;-94
2022/11/09 01:17:56;;;;;;;6.80;3.23;;;;;;;;;;5035067;28;20202;-91
2022/11/09 01:20:25;;;;;;;10.57;3.60;;;;;;;;;;5036094;28;20252;-91
2022/11/09 01:22:54;;;;;;;8.33;2.90;;;;;;;;;;5047779;28;20251;-90
2022/11/09 01:25:23;;;;;;;7.30;3.53;;;;;;;;;;5035607;28;20198;-91
2022/11/09 01:27:53;;;;;;;11.97;4.47;;;;;;;;;;5025956;28;20204;-91
2022/11/09 01:30:21;;;;;;;5.40;2.73;;;;;;;;;;5039595;28;20202;-91
2022/11/09 01:32:50;;;;;;;8.47;3.53;;;;;;;;;;5039355;28;20218;-90
2022/11/09 01:35:18;;;;;;;5.43;3.23;;;;;;;;;;5039864;28;20202;-91
2022/11/09 01:37:47;;;;;;;7.50;3.70;;;;;;;;;;5039214;28;20203;-91
2022/11/09 01:40:16;;;;;;;6.30;2.93;;;;;;;;;;5039206;28;20286;-91
2022/11/09 01:42:44;;;;;;;7.20;2.80;;;;;;;;;;5039050;28;20285;-91
2022/11/09 01:45:25;;;;;;;5.97;2.57;;;;;;;;;;5036912;28;20199;-91
2022/11/09 01:47:57;;;;;;;7.83;3.10;;;;;;;;;;5039406;28;20200;-90
2022/11/09 01:50:29;;;;;;;7.33;3.53;;;;;;;;;;5039231;28;20226;-91
2022/11/09 01:52:57;;;;;;;9.80;3.13;;;;;;;;;;5038717;28;20248;-91
2022/11/09 01:55:26;;;;;;;12.83;3.03;;;;;;;;;;5039654;28;20198;-90
2022/11/09 01:58:12;;;;;;;8.50;3.63;;;;;;;;;;5043893;28;20281;-92
2022/11/09 02:01:13;;;;;;;5.17;3.10;;;;;;;;;;4939580;28;20234;-92
2022/11/09 02:03:45;;;;;;;8.63;2.57;;;;;;;;;;4990982;28;20212;-92
2022/11/09 02:06:34;;;;;;;12.10;4.80;;;;;;;;;;4977690;28;20203;-92
2022/11/09 02:09:05;;;;;;;8.70;3.00;;;;;;;;;;4978261;28;20220;-92
2022/11/09 02:11:35;;;;;;;5.80;3.20;;;;;;;;;;4958091;28;20203;-92
2022/11/09 02:14:04;;;;;;;5.87;2.40;;;;;;;;;;4944236;28;20220;-91
2022/11/09 02:16:42;;;;;;;3.40;1.97;;;;;;;;;;4913093;29;20266;-91
2022/11/09 02:19:11;;;;;;;8.87;2.80;;;;;;;;;;4899496;28;20337;-90
2022/11/09 02:21:41;;;;;;;8.07;2.90;;;;;;;;;;4927594;28;20240;-91
2022/11/09 02:24:10;;;;;;;5.27;1.70;;;;;;;;;;4968525;28;20204;-91
2022/11/09 02:26:40;;;;;;;5.40;2.03;;;;;;;;;;4950085;28;20295;-91
2022/11/09 02:29:10;;;;;;;5.00;2.27;;;;;;;;;;4978093;28;20208;-90
2022/11/09 02:31:41;;;;;;;1.53;1.23;;;;;;;;;;4943092;28;20215;-90
2022/11/09 02:34:11;;;;;;;4.80;2.10;;;;;;;;;;4968917;28;20213;-91
2022/11/09 02:36:42;;;;;;;6.87;3.07;;;;;;;;;;5036964;28;20257;-90
2022/11/09 02:39:11;;;;;;;7.50;2.33;;;;;;;;;;5031980;28;20227;-90
2022/11/09 02:41:51;;;;;;;12.50;2.60;;;;;;;;;;5048442;28;20214;-91
2022/11/09 02:44:20;;;;;;;6.57;2.40;;;;;;;;;;5047012;28;20191;-91
2022/11/09 02:46:49;;;;;;;10.93;5.10;;;;;;;;;;5045924;28;20211;-91
2022/11/09 02:49:17;;;;;;;8.57;3.27;;;;;;;;;;5051033;28;20216;-91
2022/11/09 02:51:47;;;;;;;14.13;4.93;;;;;;;;;;5037859;28;20199;-91
2022/11/09 02:54:16;;;;;;;9.17;2.80;;;;;;;;;;5037348;28;20202;-91
2022/11/09 02:56:44;;;;;;;9.30;2.90;;;;;;;;;;5037612;28;20227;-91
2022/11/09 02:59:13;;;;;;;6.47;2.43;;;;;;;;;;5054455;28;20203;-91
2022/11/09 03:01:41;;;;;;;9.20;3.70;;;;;;;;;;5014071;28;20207;-90
2022/11/09 03:04:10;;;;;;;8.47;3.23;;;;;;;;;;5042022;28;20213;-91
2022/11/09 03:06:38;;;;;;;7.53;3.37;;;;;;;;;;5037221;28;20291;-91
2022/11/09 03:09:10;;;;;;;11.23;4.27;;;;;;;;;;5039344;28;20201;-91
2022/11/09 03:11:38;;;;;;;8.10;3.53;;;;;;;;;;5037204;28;20205;-91
2022/11/09 03:14:11;;;;;;;7.33;2.53;;;;;;;;;;5035858;28;20338;-91
2022/11/09 03:16:40;;;;;;;4.50;1.77;;;;;;;;;;5013757;28;20206;-91
2022/11/09 03:19:15;;;;;;;13.03;3.83;;;;;;;;;;5033106;28;20213;-91
2022/11/09 03:21:43;;;;;;;6.53;3.57;;;;;;;;;;5029000;28;20202;-91
2022/11/09 03:24:13;;;;;;;15.30;5.03;;;;;;;;;;5036992;28;20199;-91
2022/11/09 03:26:42;;;;;;;9.40;3.50;;;;;;;;;;5045070;28;20210;-91
2022/11/09 03:29:12;;;;;;;12.13;4.00;;;;;;;;;;5036763;28;20202;-91
2022/11/09 03:31:41;;;;;;;11.23;3.10;;;;;;;;;;5037014;28;20264;-91
2022/11/09 03:34:10;;;;;;;7.57;3.30;;;;;;;;;;5037040;28;20272;-91
2022/11/09 03:36:38;;;;;;;7.20;2.30;;;;;;;;;;5052996;28;20261;-91
2022/11/09 03:39:07;;;;;;;8.40;2.47;;;;;;;;;;5024481;28;20202;-91
2022/11/09 03:41:36;;;;;;;10.83;3.17;;;;;;;;;;5034203;28;20209;-91
2022/11/09 03:44:05;;;;;;;6.23;2.30;;;;;;;;;;5038966;28;20205;-91
2022/11/09 03:46:33;;;;;;;8.43;3.30;;;;;;;;;;5021116;28;20213;-91
2022/11/09 03:49:02;;;;;;;3.10;2.07;;;;;;;;;;5039763;28;20216;-91
2022/11/09 03:51:30;;;;;;;7.67;2.40;;;;;;;;;;5040078;28;20199;-91
2022/11/09 03:53:59;;;;;;;1.17;1.03;;;;;;;;;;5036210;28;20222;-91
2022/11/09 03:56:27;;;;;;;6.13;2.47;;;;;;;;;;5036527;28;20190;-91
2022/11/09 03:58:57;;;;;;;9.23;2.30;;;;;;;;;;5036830;28;20206;-92
2022/11/09 04:01:26;;;;;;;13.87;3.23;;;;;;;;;;5051185;28;20198;-93
2022/11/09 04:03:54;;;;;;;9.40;4.27;;;;;;;;;;5035586;28;20218;-92
2022/11/09 04:06:23;;;;;;;9.33;3.50;;;;;;;;;;5024152;28;20255;-92
2022/11/09 04:08:52;;;;;;;8.17;2.47;;;;;;;;;;5043956;28;20234;-92
2022/11/09 04:11:20;;;;;;;8.60;2.80;;;;;;;;;;5049375;28;20199;-92
2022/11/09 04:13:49;;;;;;;12.83;3.40;;;;;;;;;;5036228;28;20220;-92
2022/11/09 04:16:19;;;;;;;8.23;3.77;;;;;;;;;;5036168;28;20214;-92
2022/11/09 04:18:47;;;;;;;9.13;3.30;;;;;;;;;;5022985;28;20261;-89
2022/11/09 04:21:16;;;;;;;8.70;3.23;;;;;;;;;;5026487;28;20208;-89
2022/11/09 04:23:51;;;;;;;5.60;2.50;;;;;;;;;;5029453;28;20197;-89
2022/11/09 04:26:19;;;;;;;7.30;3.30;;;;;;;;;;5046616;28;20194;-89
2022/11/09 04:28:48;;;;;;;7.00;2.03;;;;;;;;;;5037265;28;20258;-89
2022/11/09 04:31:16;;;;;;;10.90;4.70;;;;;;;;;;5035769;28;20320;-89
2022/11/09 04:33:49;;;;;;;9.53;3.10;;;;;;;;;;5036307;28;20248;-89
2022/11/09 04:36:18;;;;;;;7.53;2.70;;;;;;;;;;5038894;28;20208;-89
2022/11/09 04:38:46;;;;;;;5.77;2.00;;;;;;;;;;5038144;28;20217;-89
2022/11/09 04:41:15;;;;;;;5.47;2.63;;;;;;;;;;5035481;28;20190;-89
2022/11/09 04:43:43;;;;;;;7.23;2.87;;;;;;;;;;5035327;28;20313;-90
2022/11/09 04:46:12;;;;;;;8.50;2.67;;;;;;;;;;5053244;28;20229;-91
2022/11/09 04:48:41;;;;;;;11.70;3.67;;;;;;;;;;5035643;28;20199;-90
2022/11/09 04:51:11;;;;;;;4.70;2.00;;;;;;;;;;5035826;28;20210;-90
2022/11/09 04:53:39;;;;;;;8.90;2.60;;;;;;;;;;5052153;28;20226;-90
2022/11/09 04:56:08;;;;;;;8.43;2.07;;;;;;;;;;5036277;28;20198;-90
2022/11/09 04:58:37;;;;;;;12.10;4.37;;;;;;;;;;5048224;28;20214;-90
2022/11/09 05:01:06;;;;;;;8.97;2.57;;;;;;;;;;5035512;28;20206;-90
2022/11/09 05:03:34;;;;;;;7.27;2.30;;;;;;;;;;5035825;28;20225;-90
2022/11/09 05:06:30;;;;;;;15.87;3.90;;;;;;;;;;5048601;28;20293;-90
2022/11/09 05:08:54;;;;;;;9.37;3.30;;;;;;;;;;5035532;28;20292;-91
2022/11/09 05:11:23;;;;;;;7.83;2.50;;;;;;;;;;5035627;28;20212;-92
2022/11/09 05:13:51;;;;;;;8.67;3.20;;;;;;;;;;5035389;28;20230;-92
2022/11/09 05:16:20;;;;;;;10.23;3.43;;;;;;;;;;5023177;28;20202;-92
2022/11/09 05:18:48;;;;;;;8.10;2.83;;;;;;;;;;5022452;28;20202;-92
2022/11/09 05:21:33;;;;;;;6.27;3.30;;;;;;;;;;5036243;28;20198;-90
2022/11/09 05:24:02;;;;;;;13.27;3.20;;;;;;;;;;5015446;28;20197;-91
2022/11/09 05:26:32;;;;;;;5.07;2.23;;;;;;;;;;5044374;28;20202;-91
2022/11/09 05:29:01;;;;;;;8.23;3.20;;;;;;;;;;5048245;28;20204;-91
2022/11/09 05:31:29;;;;;;;5.70;3.13;;;;;;;;;;5028212;28;20209;-92
2022/11/09 05:33:59;;;;;;;8.50;3.57;;;;;;;;;;5036691;28;20194;-91
2022/11/09 05:36:28;;;;;;;7.00;2.57;;;;;;;;;;5035248;28;20202;-91
2022/11/09 05:38:56;;;;;;;3.83;2.23;;;;;;;;;;5024464;28;20273;-91
2022/11/09 05:41:42;;;;;;;3.70;2.30;;;;;;;;;;5032453;28;20209;-90
2022/11/09 05:44:11;;;;;;;7.77;2.80;;;;;;;;;;5045796;28;20262;-91
2022/11/09 05:46:39;;;;;;;6.27;3.23;;;;;;;;;;5034112;28;20214;-91
2022/11/09 05:49:08;;;;;;;8.57;3.30;;;;;;;;;;5052708;28;20217;-92
2022/11/09 05:51:38;;;;;;;6.73;2.33;;;;;;;;;;5044882;28;20195;-92
2022/11/09 05:54:09;;;;;;;6.73;2.93;;;;;;;;;;5042867;28;20222;-91
2022/11/09 05:56:38;;;;;;;6.47;4.37;;;;;;;;;;5023583;28;20197;-92
2022/11/09 05:59:08;;;;;;;9.43;2.50;;;;;;;;;;5037828;28;20213;-90
2022/11/09 06:01:37;;;;;;;10.97;3.77;;;;;;;;;;5024740;28;20201;-92
2022/11/09 06:04:12;;;;;;;8.30;3.23;;;;;;;;;;5041642;28;20256;-90
2022/11/09 06:06:40;;;;;;;9.23;3.70;;;;;;;;;;5023739;28;20216;-91
2022/11/09 06:09:19;;;;;;;7.60;3.27;;;;;;;;;;5033392;28;20205;-91
2022/11/09 06:11:47;;;;;;;7.97;3.00;;;;;;;;;;5044757;28;20193;-91
2022/11/09 06:14:17;;;;;;;6.43;3.27;;;;;;;;;;5039621;28;20205;-90
2022/11/09 06:16:46;;;;;;;6.07;3.10;;;;;;;;;;5056064;28;20201;-91
2022/11/09 06:19:14;;;;;;;8.67;4.13;;;;;;;;;;5038536;28;20216;-91
2022/11/09 06:21:43;;;;;;;11.60;4.17;;;;;;;;;;5038183;28;20210;-87
2022/11/09 06:24:11;;;;;;;10.93;4.37;;;;;;;;;;5051759;28;20196;-91
2022/11/09 06:27:02;;;;;;;11.20;3.57;;;;;;;;;;5056558;28;20210;-92
2022/11/09 06:29:38;;;;;;;9.17;4.53;;;;;;;;;;5038038;28;20198;-92
2022/11/09 06:32:07;;;;;;;10.93;4.70;;;;;;;;;;5038118;28;20293;-92
2022/11/09 06:34:35;;;;;;;7.63;3.37;;;;;;;;;;5038363;28;20241;-92
2022/11/09 06:37:04;;;;;;;10.50;3.90;;;;;;;;;;5038105;28;20201;-91
2022/11/09 06:39:35;;;;;;;9.37;3.60;;;;;;;;;;5056134;28;20207;-92
2022/11/09 06:42:09;;;;;;;14.57;4.70;;;;;;;;;;5051489;28;20225;-92
2022/11/09 06:44:42;;;;;;;9.80;4.73;;;;;;;;;;5037885;28;20284;-91
2022/11/09 06:47:30;;;;;;;8.87;3.10;;;;;;;;;;5032125;28;20197;-91
2022/11/09 06:49:59;;;;;;;7.87;2.63;;;;;;;;;;5044281;28;20253;-91
2022/11/09 06:52:27;;;;;;;9.90;3.10;;;;;;;;;;5048240;28;20204;-92
2022/11/09 06:54:56;;;;;;;11.57;2.67;;;;;;;;;;5041582;28;20213;-92
2022/11/09 06:57:25;;;;;;;7.10;3.10;;;;;;;;;;5047914;28;20312;-89
2022/11/09 06:59:55;;;;;;;9.87;4.03;;;;;;;;;;5038777;28;20285;-88
2022/11/09 07:02:23;;;;;;;9.17;4.23;;;;;;;;;;5027433;28;20214;-88
2022/11/09 07:04:52;;;;;;;4.50;2.47;;;;;;;;;;5137315;22;20267;-88
2022/11/09 07:07:21;;;;;;;12.87;3.23;;;;;;;;;;5073622;28;20289;-89
2022/11/09 07:09:56;;;;;;;8.57;3.63;;;;;;;;;;5060256;28;20207;-89
2022/11/09 07:12:25;;;;;;;12.77;3.47;;;;;;;;;;5059634;28;20269;-89
2022/11/09 07:14:54;;;;;;;8.40;4.07;;;;;;;;;;5075383;28;20302;-89
2022/11/09 07:17:23;;;;;;;2.53;1.77;;;;;;;;;;5064541;28;20231;-91
2022/11/09 07:19:52;;;;;;;2.80;2.67;;;;;;;;;;5064392;28;20262;-88
2022/11/09 07:22:20;;;;;;;5.83;1.67;;;;;;;;;;5074728;28;20841;-88
2022/11/09 07:24:49;;;;;;;2.67;1.20;;;;;;;;;;5076076;28;20225;-90
2022/11/09 07:27:17;;;;;;;0.73;0.73;;;;;;;;;;5071379;28;20194;-90
2022/11/09 07:29:52;;;;;;;9.57;3.60;;;;;;;;;;5057852;28;20245;-90
2022/11/09 07:32:22;;;;;;;11.47;3.03;;;;;;;;;;5043326;28;20205;-88
2022/11/09 07:35:10;;;;;;;8.50;2.07;;;;;;;;;;5058171;28;20251;-89
2022/11/09 07:53:13;;;;;;;7.43;2.17;;;;;;;;;;4991037;28;20189;-90
2022/11/09 07:55:57;;;;;;;7.23;2.43;;;;;;;;;;4959840;28;20318;-90
2022/11/09 07:58:26;;;;;;;4.83;2.23;;;;;;;;;;5042102;28;20200;-91
2022/11/09 08:11:52;;;;;;;10.87;4.00;;;;;;;;;;4956589;28;20209;-88
2022/11/09 08:14:23;;;;;;;11.73;4.20;;;;;;;;;;4991435;28;20268;-88
2022/11/09 08:16:56;;;;;;;6.83;2.93;;;;;;;;;;5009257;28;20216;-88
2022/11/09 08:19:25;;;;;;;4.27;2.83;;;;;;;;;;4989072;28;20235;-86
2022/11/09 08:21:57;;;;;;;8.47;3.20;;;;;;;;;;5010147;28;20206;-87
2022/11/09 08:24:28;;;;;;;9.83;3.23;;;;;;;;;;4991177;28;20227;-89
2022/11/09 08:26:58;;;;;;;6.57;2.80;;;;;;;;;;4987814;28;20201;-88
2022/11/09 08:29:27;;;;;;;9.37;2.57;;;;;;;;;;4994980;28;20207;-88
2022/11/09 08:32:18;;;;;;;3.90;1.47;;;;;;;;;;5001202;28;20259;-89
2022/11/09 08:35:02;;;;;;;10.47;3.17;;;;;;;;;;5072705;28;20212;-89
2022/11/09 08:37:36;;;;;;;9.27;3.37;;;;;;;;;;5068984;28;20284;-87
2022/11/09 08:40:15;;;;;;;;;;;;;;;;;;;;;
2022/11/09 08:42:52;;;;;;;1.10;1.07;;;;;;;;;;5074520;28;20221;-87
2022/11/09 08:45:21;;;;;;;8.43;2.97;;;;;;;;;;5070326;28;20196;-87
2022/11/09 08:47:49;;;;;;;9.53;3.63;;;;;;;;;;5070092;28;20200;-86
2022/11/09 08:50:18;;;;;;;8.40;3.53;;;;;;;;;;5072153;28;20232;-90
2022/11/09 08:52:47;;;;;;;10.10;3.37;;;;;;;;;;5082208;28;20258;-90
2022/11/09 08:55:17;;;;;;;7.50;4.17;;;;;;;;;;5087233;28;20723;-85
2022/11/09 08:57:55;;;;;;;6.27;2.80;;;;;;;;;;5091736;28;20272;-89
2022/11/09 09:00:29;;;;;;;9.30;3.67;;;;;;;;;;5071898;28;20232;-91
2022/11/09 09:02:58;;;;;;;4.13;2.00;;;;;;;;;;5073035;28;20209;-89
2022/11/09 09:05:26;;;;;;;9.70;3.27;;;;;;;;;;5073684;28;20239;-91
2022/11/09 09:07:59;;;;;;;6.30;2.80;;;;;;;;;;5071349;28;20203;-89
2022/11/09 09:10:31;;;;;;;10.30;3.53;;;;;;;;;;5072903;28;20204;-90
2022/11/09 09:13:00;;;;;;;8.23;3.83;;;;;;;;;;5071262;28;20204;-87
2022/11/09 09:15:39;;;;;;;6.43;3.10;;;;;;;;;;5072425;28;20205;-89
2022/11/09 09:18:10;;;;;;;9.83;3.20;;;;;;;;;;5071027;28;20235;-91
2022/11/09 09:20:43;;;;;;;1.47;1.37;;;;;;;;;;5073185;28;20288;-90
2022/11/09 09:23:14;;;;;;;2.73;2.53;;;;;;;;;;5077508;28;20203;-90
2022/11/09 09:25:42;;;;;;;10.83;4.37;;;;;;;;;;5070916;28;20209;-88
2022/11/09 09:28:13;;;;;;;7.63;4.83;;;;;;;;;;5073927;28;20201;-88
2022/11/09 09:30:44;;;;;;;7.93;1.83;;;;;;;;;;5073947;28;20212;-91
2022/11/09 09:33:18;;;;;;;13.43;4.07;;;;;;;;;;5070406;28;20201;-89
2022/11/09 09:35:56;;;;;;;8.17;2.97;;;;;;;;;;5069605;28;20193;-90
2022/11/09 09:38:29;;;;;;;10.07;4.17;;;;;;;;;;5060473;28;20295;-89
2022/11/09 09:41:01;;;;;;;4.30;2.20;;;;;;;;;;5075456;28;20220;-92
2022/11/09 09:43:32;;;;;;;6.93;3.47;;;;;;;;;;5072243;28;20201;-89
2022/11/09 09:46:13;;;;;;;9.73;4.00;;;;;;;;;;5086852;28;20203;-90
2022/11/09 09:48:44;;;;;;;6.77;3.10;;;;;;;;;;5078188;28;20211;-89
2022/11/09 09:51:17;;;;;;;6.63;3.07;;;;;;;;;;5077504;28;20202;-91
2022/11/09 09:53:49;;;;;;;12.90;4.50;;;;;;;;;;5071649;28;20240;-91
2022/11/09 09:56:21;;;;;;;5.77;3.10;;;;;;;;;;5080251;28;20213;-90
2022/11/09 10:02:22;;;;;;;8.20;3.53;;;;;;;;;;5039087;28;20204;-90
2022/11/09 10:04:52;;;;;;;11.37;3.87;;;;;;;;;;5077989;28;20252;-90
2022/11/09 10:07:27;;;;;;;8.73;3.83;;;;;;;;;;5079171;28;20197;-92
2022/11/09 10:10:00;;;;;;;5.10;1.83;;;;;;;;;;5066231;28;20205;-91
2022/11/09 10:12:35;;;;;;;7.20;2.63;;;;;;;;;;5073186;28;20207;-91
2022/11/09 10:15:17;;;;;;;7.40;2.23;;;;;;;;;;5079796;28;20204;-88
2022/11/09 10:17:57;;;;;;;2.77;1.33;;;;;;;;;;5077113;28;20307;-86
2022/11/09 10:20:31;;;;;;;1.20;0.90;;;;;;;;;;5064623;28;20205;-87
2022/11/09 10:23:07;;;;;;;3.80;1.10;;;;;;;;;;5073238;28;20215;-87
2022/11/09 10:25:40;;;;;;;1.87;1.23;;;;;;;;;;5077737;28;20207;-89
2022/11/09 10:28:32;;;;;;;4.33;1.03;;;;;;;;;;5077635;28;20198;-89
2022/11/09 10:31:23;;;;;;;1.20;0.70;;;;;;;;;;5075667;28;20216;-88
2022/11/09 10:33:56;;;;;;;1.50;1.40;;;;;;;;;;5078665;28;20221;-87
2022/11/09 10:36:27;;;;;;;5.80;3.00;;;;;;;;;;5076664;28;20211;-87
2022/11/09 10:38:59;;;;;;;10.03;2.97;;;;;;;;;;5103413;28;20235;-88
2022/11/09 10:41:35;;;;;;;3.80;1.43;;;;;;;;;;5095895;28;20189;-89
2022/11/09 10:44:05;;;;;;;0.97;0.97;;;;;;;;;;5092852;28;20223;-88
2022/11/09 10:47:01;;;;;;;8.40;2.00;;;;;;;;;;5081791;28;20193;-85
2022/11/09 10:49:35;;;;;;;2.93;1.60;;;;;;;;;;5073190;28;20196;-86
2022/11/09 10:52:09;;;;;;;1.33;1.07;;;;;;;;;;5075353;28;20208;-86
2022/11/09 10:54:38;;;;;;;5.77;2.10;;;;;;;;;;5073170;28;20201;-87
2022/11/09 10:57:13;;;;;;;4.90;1.60;;;;;;;;;;5077115;28;20217;-86
2022/11/09 10:59:45;;;;;;;3.67;2.07;;;;;;;;;;5074595;28;20206;-85
2022/11/09 11:02:38;;;;;;;0.70;0.70;;;;;;;;;;5076730;28;20189;-86
2022/11/09 11:05:37;;;;;;;2.70;1.20;;;;;;;;;;5055068;28;20242;-85
2022/11/09 11:08:22;;;;;;;2.10;1.60;;;;;;;;;;5026326;28;20204;-87
2022/11/09 11:11:06;;;;;;;1.57;1.40;;;;;;;;;;4973644;28;20205;-85
2022/11/09 11:14:08;;;;;;;6.37;2.43;;;;;;;;;;4964352;28;20273;-85
2022/11/09 11:16:39;;;;;;;7.07;1.70;;;;;;;;;;4972783;28;20209;-84
2022/11/09 11:19:26;;;;;;;5.00;1.90;;;;;;;;;;4966120;28;20236;-84
2022/11/09 11:22:10;;;;;;;8.00;2.70;;;;;;;;;;4972317;28;20215;-85
2022/11/09 11:24:43;;;;;;;9.23;1.10;;;;;;;;;;4991763;28;20193;-86
2022/11/09 11:27:15;;;;;;;8.87;3.23;;;;;;;;;;4978964;28;20208;-85
2022/11/09 11:29:47;;;;;;;28.07;3.60;;;;;;;;;;4979805;28;20208;-84
2022/11/09 11:32:17;;;;;;;3.10;1.70;;;;;;;;;;4966407;28;20208;-84
2022/11/09 11:34:46;;;;;;;2.57;1.47;;;;;;;;;;4968064;28;20213;-84
2022/11/09 11:37:38;;;;;;;4.63;2.00;;;;;;;;;;4969572;28;20205;-84
2022/11/09 11:40:17;;;;;;;20.73;3.90;;;;;;;;;;4972626;28;20201;-84
2022/11/09 11:43:09;;;;;;;7.80;3.20;;;;;;;;;;4989911;28;20211;-84
2022/11/09 11:45:41;;;;;;;12.57;5.40;;;;;;;;;;4978045;28;20283;-84
2022/11/09 11:48:24;;;;;;;13.80;3.93;;;;;;;;;;4984755;28;20205;-84
2022/11/09 11:50:56;;;;;;;10.70;2.80;;;;;;;;;;4975115;28;20213;-85
2022/11/09 11:53:32;;;;;;;16.93;3.23;;;;;;;;;;4989107;28;20204;-85
2022/11/09 11:56:12;;;;;;;8.10;2.60;;;;;;;;;;4973331;28;20223;-84
2022/11/09 11:58:48;;;;;;;6.63;1.97;;;;;;;;;;4978988;28;20232;-85
2022/11/09 12:01:25;;;;;;;7.20;2.73;;;;;;;;;;4972893;28;20212;-84
2022/11/09 12:03:59;;;;;;;4.33;2.10;;;;;;;;;;4971005;28;20220;-86
2022/11/09 12:06:43;;;;;;;10.27;2.83;;;;;;;;;;4978364;28;20317;-85
2022/11/09 12:09:26;;;;;;;4.47;1.70;;;;;;;;;;4994276;28;20291;-87
2022/11/09 12:12:02;;;;;;;8.77;2.40;;;;;;;;;;5052660;28;20223;-87
2022/11/09 12:14:37;;;;;;;11.63;4.20;;;;;;;;;;5052474;28;20200;-87
2022/11/09 12:17:10;;;;;;;5.53;1.20;;;;;;;;;;5043048;28;20198;-87
2022/11/09 12:19:44;;;;;;;7.23;3.97;;;;;;;;;;5017492;28;20288;-86
2022/11/09 12:22:16;;;;;;;6.83;2.17;;;;;;;;;;5058960;28;20212;-86
2022/11/09 12:24:50;;;;;;;5.50;2.77;;;;;;;;;;5050142;28;20213;-86
2022/11/09 12:27:37;;;;;;;1.47;1.10;;;;;;;;;;5044115;28;20336;-87
2022/11/09 12:30:12;;;;;;;10.40;3.00;;;;;;;;;;5040143;28;20200;-89
2022/11/09 12:32:45;;;;;;;5.97;2.87;;;;;;;;;;5054591;28;20223;-87
2022/11/09 12:35:23;;;;;;;7.43;2.23;;;;;;;;;;4992658;28;20203;-86
2022/11/09 12:37:53;;;;;;;4.80;1.77;;;;;;;;;;5073254;28;20239;-85
2022/11/09 12:40:25;;;;;;;4.97;2.30;;;;;;;;;;5051469;28;20220;-86
2022/11/09 12:42:57;;;;;;;4.10;1.97;;;;;;;;;;5050947;28;20200;-85
2022/11/09 12:45:28;;;;;;;7.80;2.47;;;;;;;;;;5054600;28;20226;-86
2022/11/09 12:47:58;;;;;;;6.63;2.70;;;;;;;;;;4992546;28;20216;-86
2022/11/09 12:50:28;;;;;;;5.93;2.17;;;;;;;;;;5039875;28;20246;-86
2022/11/09 12:52:59;;;;;;;9.33;3.50;;;;;;;;;;4995955;28;20200;-86
2022/11/09 12:55:30;;;;;;;9.80;3.20;;;;;;;;;;5056628;28;20223;-85
2022/11/09 12:57:59;;;;;;;14.93;3.43;;;;;;;;;;5064004;28;20220;-85
2022/11/09 13:00:46;;;;;;;8.50;3.53;;;;;;;;;;5055695;28;20228;-87
2022/11/09 13:03:20;;;;;;;8.13;3.10;;;;;;;;;;5051025;28;20224;-86
2022/11/09 13:05:49;;;;;;;10.83;3.60;;;;;;;;;;5030849;28;20205;-87
2022/11/09 13:08:21;;;;;;;7.70;3.40;;;;;;;;;;5075065;28;20283;-87
2022/11/09 13:11:07;;;;;;;9.13;3.80;;;;;;;;;;5050801;28;20201;-87
2022/11/09 13:13:36;;;;;;;6.17;2.03;;;;;;;;;;5074024;28;20207;-88
2022/11/09 13:16:20;;;;;;;7.60;3.70;;;;;;;;;;5078644;28;20212;-88
2022/11/09 13:18:52;;;;;;;5.03;1.83;;;;;;;;;;5059232;28;20222;-87
2022/11/09 13:21:34;;;;;;;13.47;5.43;;;;;;;;;;5074294;28;20204;-88
2022/11/09 13:24:24;;;;;;;7.50;2.37;;;;;;;;;;5077478;28;20197;-87
2022/11/09 13:26:56;;;;;;;4.70;2.30;;;;;;;;;;5078250;28;20223;-87
2022/11/09 13:29:26;;;;;;;9.03;2.23;;;;;;;;;;5077393;28;20287;-87
2022/11/09 13:32:15;;;;;;;5.57;1.87;;;;;;;;;;5097466;28;20204;-87
2022/11/09 13:34:47;;;;;;;9.37;3.60;;;;;;;;;;5095547;28;20192;-88
2022/11/09 13:37:34;;;;;;;10.87;3.47;;;;;;;;;;5078188;28;20262;-89
2022/11/09 13:40:03;;;;;;;4.60;2.50;;;;;;;;;;5075318;28;20224;-88
2022/11/09 13:42:43;;;;;;;3.37;1.77;;;;;;;;;;5078330;28;20197;-88
2022/11/09 13:45:34;;;;;;;4.70;2.30;;;;;;;;;;5080907;28;20229;-89
2022/11/09 13:48:04;;;;;;;5.40;1.50;;;;;;;;;;5046102;28;20217;-88
2022/11/09 13:50:35;;;;;;;15.17;3.03;;;;;;;;;;5077998;28;20206;-86
2022/11/09 13:53:25;;;;;;;12.17;2.03;;;;;;;;;;5079978;28;20209;-88
2022/11/09 13:55:54;;;;;;;6.60;1.70;;;;;;;;;;5093325;28;20208;-88
2022/11/09 13:58:25;;;;;;;10.57;2.17;;;;;;;;;;5076286;28;20216;-88
2022/11/09 14:00:53;;;;;;;5.90;2.63;;;;;;;;;;5075737;28;20202;-88
2022/11/09 14:03:23;;;;;;;3.60;1.30;;;;;;;;;;5075649;28;20365;-87
2022/11/09 14:05:54;;;;;;;9.10;2.00;;;;;;;;;;5072528;28;20214;-88
2022/11/09 14:08:28;;;;;;;7.83;1.67;;;;;;;;;;5076260;28;20199;-88
2022/11/09 14:11:37;;;;;;;0.70;0.70;;;;;;;;;;5075060;28;20199;-88
2022/11/09 14:14:17;;;;;;;0.73;0.73;;;;;;;;;;5054389;28;20280;-88
2022/11/09 14:16:51;;;;;;;1.53;1.37;;;;;;;;;;5076600;28;20272;-88
2022/11/09 14:19:26;;;;;;;7.43;1.97;;;;;;;;;;5077170;28;20206;-88
2022/11/09 14:21:56;;;;;;;8.63;1.43;;;;;;;;;;5076175;28;20209;-88
2022/11/09 14:24:28;;;;;;;2.17;1.97;;;;;;;;;;5077095;28;20202;-87
2022/11/09 14:27:04;;;;;;;4.93;1.43;;;;;;;;;;5066618;28;20205;-87
2022/11/09 14:29:32;;;;;;;4.73;1.60;;;;;;;;;;5074348;28;20225;-88
2022/11/09 14:32:02;;;;;;;1.00;0.90;;;;;;;;;;5074661;28;20193;-90
2022/11/09 14:34:30;;;;;;;4.70;1.83;;;;;;;;;;5095107;28;20219;-89
2022/11/09 14:37:01;;;;;;;4.57;2.30;;;;;;;;;;5078621;28;20201;-88
2022/11/09 14:39:34;;;;;;;4.53;1.40;;;;;;;;;;5075208;28;20220;-88
2022/11/09 14:42:03;;;;;;;4.37;2.10;;;;;;;;;;5074752;28;20248;-88
2022/11/09 14:44:34;;;;;;;2.67;1.20;;;;;;;;;;5075096;28;20197;-86
2022/11/09 14:47:04;;;;;;;3.50;1.43;;;;;;;;;;5080327;28;20232;-91
2022/11/09 14:49:33;;;;;;;5.13;2.27;;;;;;;;;;5076995;28;20184;-90
2022/11/09 14:52:07;;;;;;;3.07;1.57;;;;;;;;;;5076598;28;20197;-90
2022/11/09 14:54:37;;;;;;;6.43;1.70;;;;;;;;;;5076538;28;20204;-90
2022/11/09 14:57:18;;;;;;;4.17;1.73;;;;;;;;;;5090440;28;20376;-92
2022/11/09 14:59:46;;;;;;;27.10;4.03;;;;;;;;;;5072132;28;20221;-90
2022/11/09 15:02:16;;;;;;;3.50;1.37;;;;;;;;;;5074823;28;20221;-91
2022/11/09 15:04:52;;;;;;;4.63;1.20;;;;;;;;;;5078529;28;20231;-90
2022/11/09 15:07:24;;;;;;;5.20;4.17;;;;;;;;;;5075717;28;20237;-89
2022/11/09 15:09:55;;;;;;;1.20;0.83;;;;;;;;;;5080970;28;20201;-90
2022/11/09 15:12:24;;;;;;;1.50;0.90;;;;;;;;;;5088436;28;20197;-90
2022/11/09 15:14:54;;;;;;;3.60;2.00;;;;;;;;;;5075014;28;20201;-90
2022/11/09 15:17:25;;;;;;;9.27;1.53;;;;;;;;;;5058222;28;20197;-91
2022/11/09 15:19:55;;;;;;;7.83;1.90;;;;;;;;;;5076497;28;20251;-88
2022/11/09 15:22:43;;;;;;;3.00;1.30;;;;;;;;;;5077858;28;20194;-90
2022/11/09 15:25:21;;;;;;;6.03;2.33;;;;;;;;;;5079950;28;20257;-90
2022/11/09 15:28:00;;;;;;;3.07;0.77;;;;;;;;;;5056187;28;20227;-89
2022/11/09 15:30:31;;;;;;;5.90;1.40;;;;;;;;;;5061749;28;20208;-89
2022/11/09 15:33:03;;;;;;;2.93;1.53;;;;;;;;;;5083905;28;20201;-89
2022/11/09 15:35:33;;;;;;;5.87;2.50;;;;;;;;;;5064616;28;20216;-90
2022/11/09 15:38:05;;;;;;;2.10;0.83;;;;;;;;;;5075715;28;20196;-91
2022/11/09 15:41:01;;;;;;;1.60;1.03;;;;;;;;;;5080036;28;20273;-91
2022/11/09 15:43:30;;;;;;;2.53;1.80;;;;;;;;;;5079521;28;20211;-89
2022/11/09 15:46:00;;;;;;;1.13;1.03;;;;;;;;;;5071014;28;20189;-90